Terminal Aerodrome Forecast
Issued by NWS Topeka, KS

Home | Current Version | Previous Version | Text Only | Print | Product List | Glossary On
Versions: 1 2 3 4 5 6 7 8 9 10 11 12 13 14 15 16 17 18 19 20 21 22 23
183
FTUS43 KTOP 261138
TAFTOP
TAF
KTOP 261138Z 2612/2712 31005KT P6SM OVC008
     FM261500 VRB03KT P6SM OVC012
     FM261900 04004KT P6SM SCT025 BKN040
     FM270100 03007KT P6SM -SHRA VCTS OVC025CB
     FM270500 01006KT 4SM -RA BR OVC008=

USA.gov is the U.S. government's official web portal to all federal, state and local government web resources and services.